sensor_id;sensor_type;location;lat;lon;timestamp;pressure;altitude;pressure_sealevel;temperature;humidity
80629;BME280;69983;42.370;-71.210;2024-03-23T00:53:03;102543.05;;;22.28;25.36
80629;BME280;69983;42.370;-71.210;2024-03-23T00:55:04;102543.14;;;22.55;25.10
80629;BME280;69983;42.370;-71.210;2024-03-23T00:57:04;102542.51;;;22.24;25.39
80629;BME280;69983;42.370;-71.210;2024-03-23T00:59:04;102542.26;;;22.30;25.64
80629;BME280;69983;42.370;-71.210;2024-03-23T01:01:04;102540.34;;;22.22;25.48
80629;BME280;69983;42.370;-71.210;2024-03-23T01:03:05;102529.93;;;22.50;25.27
80629;BME280;69983;42.370;-71.210;2024-03-23T01:05:05;102520.61;;;22.29;25.68
80629;BME280;69983;42.370;-71.210;2024-03-23T01:07:06;102517.50;;;22.66;25.31
80629;BME280;69983;42.370;-71.210;2024-03-23T01:09:06;102510.38;;;22.40;25.49
80629;BME280;69983;42.370;-71.210;2024-03-23T01:11:06;102506.65;;;20.98;25.14
80629;BME280;69983;42.370;-71.210;2024-03-23T01:13:07;102501.46;;;21.51;24.24
80629;BME280;69983;42.370;-71.210;2024-03-23T01:15:09;102504.75;;;21.69;23.96
80629;BME280;69983;42.370;-71.210;2024-03-23T01:17:08;102506.04;;;21.90;23.72
80629;BME280;69983;42.370;-71.210;2024-03-23T01:19:14;102493.86;;;21.49;23.95
80629;BME280;69983;42.370;-71.210;2024-03-23T01:21:08;102477.44;;;23.59;23.79
80629;BME280;69983;42.370;-71.210;2024-03-23T01:23:09;102478.43;;;23.29;24.04
80629;BME280;69983;42.370;-71.210;2024-03-23T01:25:10;102484.50;;;23.12;24.25
80629;BME280;69983;42.370;-71.210;2024-03-23T01:27:09;102492.60;;;23.08;24.36
80629;BME280;69983;42.370;-71.210;2024-03-23T01:29:10;102492.66;;;22.83;24.83
80629;BME280;69983;42.370;-71.210;2024-03-23T01:31:10;102501.37;;;22.57;25.13
80629;BME280;69983;42.370;-71.210;2024-03-23T01:33:11;102503.66;;;22.67;25.13
80629;BME280;69983;42.370;-71.210;2024-03-23T01:35:11;102511.07;;;22.88;24.92
80629;BME280;69983;42.370;-71.210;2024-03-23T01:37:12;102499.10;;;22.41;25.36
80629;BME280;69983;42.370;-71.210;2024-03-23T01:39:12;102495.85;;;21.89;25.60
80629;BME280;69983;42.370;-71.210;2024-03-23T01:41:12;102489.22;;;22.05;25.70
80629;BME280;69983;42.370;-71.210;2024-03-23T01:43:13;102488.64;;;22.64;25.20
80629;BME280;69983;42.370;-71.210;2024-03-23T01:45:14;102488.42;;;22.36;25.47
80629;BME280;69983;42.370;-71.210;2024-03-23T01:47:14;102488.43;;;22.70;25.18
80629;BME280;69983;42.370;-71.210;2024-03-23T01:49:14;102486.42;;;22.65;25.27
80629;BME280;69983;42.370;-71.210;2024-03-23T01:51:15;102489.08;;;22.31;25.45
80629;BME280;69983;42.370;-71.210;2024-03-23T01:53:15;102486.87;;;21.86;25.89
80629;BME280;69983;42.370;-71.210;2024-03-23T01:55:16;102483.95;;;22.17;25.63
80629;BME280;69983;42.370;-71.210;2024-03-23T01:57:16;102483.62;;;22.31;25.57
80629;BME280;69983;42.370;-71.210;2024-03-23T01:59:17;102476.85;;;22.65;25.34
80629;BME280;69983;42.370;-71.210;2024-03-23T02:01:17;102466.19;;;22.78;25.25
80629;BME280;69983;42.370;-71.210;2024-03-23T02:03:24;102459.46;;;22.43;25.59
80629;BME280;69983;42.370;-71.210;2024-03-23T02:05:17;102462.42;;;22.66;25.67
80629;BME280;69983;42.370;-71.210;2024-03-23T02:07:18;102478.94;;;22.87;25.52
80629;BME280;69983;42.370;-71.210;2024-03-23T02:09:18;102499.71;;;22.29;25.77
80629;BME280;69983;42.370;-71.210;2024-03-23T02:11:19;102502.42;;;22.61;25.56
80629;BME280;69983;42.370;-71.210;2024-03-23T02:13:20;102505.96;;;22.52;25.72
80629;BME280;69983;42.370;-71.210;2024-03-23T02:15:20;102501.81;;;22.56;25.57
80629;BME280;69983;42.370;-71.210;2024-03-23T02:17:20;102488.84;;;22.84;25.62
80629;BME280;69983;42.370;-71.210;2024-03-23T02:19:21;102484.49;;;22.85;25.65
80629;BME280;69983;42.370;-71.210;2024-03-23T02:21:21;102477.94;;;22.86;25.79
80629;BME280;69983;42.370;-71.210;2024-03-23T02:23:22;102480.00;;;22.73;25.79
80629;BME280;69983;42.370;-71.210;2024-03-23T02:25:22;102474.90;;;22.59;25.94
80629;BME280;69983;42.370;-71.210;2024-03-23T02:27:23;102463.18;;;22.63;26.17
80629;BME280;69983;42.370;-71.210;2024-03-23T02:29:23;102461.20;;;22.70;26.18
80629;BME280;69983;42.370;-71.210;2024-03-23T02:31:23;102464.56;;;22.54;26.36
80629;BME280;69983;42.370;-71.210;2024-03-23T02:33:23;102468.79;;;22.34;26.31
80629;BME280;69983;42.370;-71.210;2024-03-23T02:35:24;102465.95;;;22.55;26.35
80629;BME280;69983;42.370;-71.210;2024-03-23T02:37:24;102466.01;;;22.41;26.24
80629;BME280;69983;42.370;-71.210;2024-03-23T02:39:25;102467.66;;;22.34;26.53
80629;BME280;69983;42.370;-71.210;2024-03-23T02:41:26;102464.57;;;22.34;26.50
80629;BME280;69983;42.370;-71.210;2024-03-23T02:43:32;102469.76;;;22.50;26.40
80629;BME280;69983;42.370;-71.210;2024-03-23T02:45:27;102467.32;;;22.39;26.29
80629;BME280;69983;42.370;-71.210;2024-03-23T02:47:28;102470.73;;;22.58;26.16
80629;BME280;69983;42.370;-71.210;2024-03-23T02:49:28;102469.57;;;22.79;26.14
80629;BME280;69983;42.370;-71.210;2024-03-23T02:51:28;102472.24;;;22.26;26.63
80629;BME280;69983;42.370;-71.210;2024-03-23T02:53:29;102470.68;;;22.34;26.64
80629;BME280;69983;42.370;-71.210;2024-03-23T02:55:28;102474.57;;;22.43;26.61
80629;BME280;69983;42.370;-71.210;2024-03-23T02:57:29;102468.84;;;22.42;26.90
80629;BME280;69983;42.370;-71.210;2024-03-23T02:59:30;102463.86;;;22.13;27.05
80629;BME280;69983;42.370;-71.210;2024-03-23T03:01:30;102464.37;;;22.61;26.72
80629;BME280;69983;42.370;-71.210;2024-03-23T03:03:31;102466.28;;;22.65;26.73
80629;BME280;69983;42.370;-71.210;2024-03-23T03:05:31;102474.01;;;22.63;26.76
80629;BME280;69983;42.370;-71.210;2024-03-23T03:07:31;102476.91;;;22.47;27.03
80629;BME280;69983;42.370;-71.210;2024-03-23T03:09:32;102472.90;;;22.66;26.66
80629;BME280;69983;42.370;-71.210;2024-03-23T03:11:33;102475.22;;;22.34;26.66
80629;BME280;69983;42.370;-71.210;2024-03-23T03:13:33;102473.06;;;22.61;26.80
80629;BME280;69983;42.370;-71.210;2024-03-23T03:15:33;102466.75;;;22.65;26.55
80629;BME280;69983;42.370;-71.210;2024-03-23T03:17:34;102468.94;;;22.69;26.69
80629;BME280;69983;42.370;-71.210;2024-03-23T03:19:34;102468.91;;;21.97;27.33
80629;BME280;69983;42.370;-71.210;2024-03-23T03:21:35;102473.43;;;21.96;27.30
80629;BME280;69983;42.370;-71.210;2024-03-23T03:23:35;102479.12;;;22.46;26.88
80629;BME280;69983;42.370;-71.210;2024-03-23T03:25:36;102477.21;;;22.28;27.01
80629;BME280;69983;42.370;-71.210;2024-03-23T03:27:36;102477.61;;;22.71;26.66
80629;BME280;69983;42.370;-71.210;2024-03-23T03:29:36;102482.31;;;22.47;26.85
80629;BME280;69983;42.370;-71.210;2024-03-23T03:31:37;102480.07;;;22.14;27.05
80629;BME280;69983;42.370;-71.210;2024-03-23T03:33:37;102476.75;;;22.36;26.99
80629;BME280;69983;42.370;-71.210;2024-03-23T03:35:38;102472.66;;;22.26;26.94
80629;BME280;69983;42.370;-71.210;2024-03-23T03:37:39;102471.57;;;21.82;27.21
80629;BME280;69983;42.370;-71.210;2024-03-23T03:39:39;102470.07;;;21.94;27.08
80629;BME280;69983;42.370;-71.210;2024-03-23T03:41:39;102470.12;;;22.03;26.98
80629;BME280;69983;42.370;-71.210;2024-03-23T03:43:40;102470.81;;;21.49;27.54
80629;BME280;69983;42.370;-71.210;2024-03-23T03:45:40;102476.77;;;22.34;26.86
80629;BME280;69983;42.370;-71.210;2024-03-23T03:47:40;102475.82;;;22.09;27.01
80629;BME280;69983;42.370;-71.210;2024-03-23T03:49:41;102471.36;;;21.92;27.19
80629;BME280;69983;42.370;-71.210;2024-03-23T03:51:41;102465.40;;;22.02;27.01
80629;BME280;69983;42.370;-71.210;2024-03-23T03:53:42;102471.71;;;22.40;26.51
80629;BME280;69983;42.370;-71.210;2024-03-23T03:55:42;102466.81;;;21.99;26.98
80629;BME280;69983;42.370;-71.210;2024-03-23T03:57:42;102476.53;;;22.39;26.69
80629;BME280;69983;42.370;-71.210;2024-03-23T03:59:43;102478.75;;;22.43;26.62
80629;BME280;69983;42.370;-71.210;2024-03-23T04:01:43;102476.78;;;22.75;26.26
80629;BME280;69983;42.370;-71.210;2024-03-23T04:03:44;102481.62;;;22.27;26.68
80629;BME280;69983;42.370;-71.210;2024-03-23T04:05:51;102487.95;;;22.32;26.81
80629;BME280;69983;42.370;-71.210;2024-03-23T04:07:45;102485.28;;;22.02;27.16
80629;BME280;69983;42.370;-71.210;2024-03-23T04:09:45;102486.60;;;22.45;26.66
80629;BME280;69983;42.370;-71.210;2024-03-23T04:11:46;102489.95;;;23.00;26.50
80629;BME280;69983;42.370;-71.210;2024-03-23T04:13:46;102481.77;;;21.47;27.96
80629;BME280;69983;42.370;-71.210;2024-03-23T04:15:47;102482.89;;;21.60;28.05
80629;BME280;69983;42.370;-71.210;2024-03-23T04:17:47;102481.38;;;22.01;27.83
80629;BME280;69983;42.370;-71.210;2024-03-23T04:19:48;102482.79;;;22.06;27.80
80629;BME280;69983;42.370;-71.210;2024-03-23T04:21:48;102481.43;;;22.19;27.66
80629;BME280;69983;42.370;-71.210;2024-03-23T04:23:49;102481.80;;;22.36;27.26
80629;BME280;69983;42.370;-71.210;2024-03-23T04:25:49;102488.26;;;22.33;27.15
80629;BME280;69983;42.370;-71.210;2024-03-23T04:27:50;102492.79;;;22.60;26.86
80629;BME280;69983;42.370;-71.210;2024-03-23T04:29:50;102486.00;;;21.63;27.80
80629;BME280;69983;42.370;-71.210;2024-03-23T04:31:50;102482.89;;;22.00;27.52
80629;BME280;69983;42.370;-71.210;2024-03-23T04:33:50;102479.55;;;22.11;27.38
80629;BME280;69983;42.370;-71.210;2024-03-23T04:35:51;102492.58;;;22.30;27.29
80629;BME280;69983;42.370;-71.210;2024-03-23T04:37:52;102484.20;;;22.29;27.20
80629;BME280;69983;42.370;-71.210;2024-03-23T04:39:52;102482.29;;;22.67;26.96
80629;BME280;69983;42.370;-71.210;2024-03-23T04:41:53;102482.31;;;22.56;27.03
80629;BME280;69983;42.370;-71.210;2024-03-23T04:43:53;102477.87;;;22.03;27.52
80629;BME280;69983;42.370;-71.210;2024-03-23T04:45:53;102481.52;;;22.19;27.42
80629;BME280;69983;42.370;-71.210;2024-03-23T04:47:55;102474.35;;;22.34;27.28
80629;BME280;69983;42.370;-71.210;2024-03-23T04:49:54;102468.54;;;22.62;26.91
80629;BME280;69983;42.370;-71.210;2024-03-23T04:51:55;102473.34;;;22.25;27.21
80629;BME280;69983;42.370;-71.210;2024-03-23T04:53:55;102478.48;;;22.76;26.90
80629;BME280;69983;42.370;-71.210;2024-03-23T04:55:56;102478.52;;;22.70;27.01
80629;BME280;69983;42.370;-71.210;2024-03-23T04:57:56;102472.67;;;22.32;27.29
80629;BME280;69983;42.370;-71.210;2024-03-23T04:59:56;102471.88;;;22.01;27.52
80629;BME280;69983;42.370;-71.210;2024-03-23T05:01:57;102473.81;;;22.49;27.09
80629;BME280;69983;42.370;-71.210;2024-03-23T05:03:57;102471.04;;;22.48;27.12
80629;BME280;69983;42.370;-71.210;2024-03-23T05:05:57;102475.60;;;22.50;27.04
80629;BME280;69983;42.370;-71.210;2024-03-23T05:07:58;102484.43;;;22.78;26.87
80629;BME280;69983;42.370;-71.210;2024-03-23T05:09:58;102482.40;;;22.70;26.74
80629;BME280;69983;42.370;-71.210;2024-03-23T05:11:59;102476.61;;;21.81;27.66
80629;BME280;69983;42.370;-71.210;2024-03-23T05:13:59;102474.44;;;22.30;27.26
80629;BME280;69983;42.370;-71.210;2024-03-23T05:16:00;102469.19;;;22.21;27.34
80629;BME280;69983;42.370;-71.210;2024-03-23T05:18:00;102472.78;;;22.25;27.11
80629;BME280;69983;42.370;-71.210;2024-03-23T05:20:01;102470.31;;;22.57;27.04
80629;BME280;69983;42.370;-71.210;2024-03-23T05:22:02;102469.56;;;22.38;26.99
80629;BME280;69983;42.370;-71.210;2024-03-23T05:24:02;102457.52;;;22.73;26.92
80629;BME280;69983;42.370;-71.210;2024-03-23T05:26:02;102457.95;;;23.12;26.98
80629;BME280;69983;42.370;-71.210;2024-03-23T05:28:03;102454.30;;;22.76;26.93
80629;BME280;69983;42.370;-71.210;2024-03-23T05:30:03;102454.20;;;22.65;27.04
80629;BME280;69983;42.370;-71.210;2024-03-23T05:32:04;102452.96;;;22.40;27.09
80629;BME280;69983;42.370;-71.210;2024-03-23T05:34:04;102456.17;;;22.37;27.12
80629;BME280;69983;42.370;-71.210;2024-03-23T05:36:05;102454.58;;;22.63;26.93
80629;BME280;69983;42.370;-71.210;2024-03-23T05:38:05;102451.66;;;22.23;27.23
80629;BME280;69983;42.370;-71.210;2024-03-23T05:40:06;102452.92;;;22.86;26.76
80629;BME280;69983;42.370;-71.210;2024-03-23T05:42:07;102444.45;;;22.39;27.21
80629;BME280;69983;42.370;-71.210;2024-03-23T05:44:07;102434.62;;;22.77;26.93
80629;BME280;69983;42.370;-71.210;2024-03-23T05:46:08;102439.99;;;22.54;27.15
80629;BME280;69983;42.370;-71.210;2024-03-23T05:48:08;102447.21;;;22.40;27.07
80629;BME280;69983;42.370;-71.210;2024-03-23T05:50:09;102440.89;;;22.42;27.08
80629;BME280;69983;42.370;-71.210;2024-03-23T05:52:09;102435.10;;;21.89;27.57
80629;BME280;69983;42.370;-71.210;2024-03-23T05:54:09;102434.11;;;22.92;26.94
80629;BME280;69983;42.370;-71.210;2024-03-23T05:56:10;102430.40;;;22.17;27.51
80629;BME280;69983;42.370;-71.210;2024-03-23T05:58:11;102433.63;;;22.50;26.97
80629;BME280;69983;42.370;-71.210;2024-03-23T06:00:12;102416.76;;;22.58;27.00
80629;BME280;69983;42.370;-71.210;2024-03-23T06:02:12;102402.73;;;22.63;27.03
80629;BME280;69983;42.370;-71.210;2024-03-23T06:04:12;102397.87;;;21.66;26.85
80629;BME280;69983;42.370;-71.210;2024-03-23T06:06:12;102387.57;;;21.25;26.58
80629;BME280;69983;42.370;-71.210;2024-03-23T06:08:13;102381.25;;;21.93;25.77
80629;BME280;69983;42.370;-71.210;2024-03-23T06:10:14;102386.31;;;22.03;25.49
80629;BME280;69983;42.370;-71.210;2024-03-23T06:12:15;102385.22;;;21.82;25.61
80629;BME280;69983;42.370;-71.210;2024-03-23T06:14:15;102390.16;;;23.30;25.36
80629;BME280;69983;42.370;-71.210;2024-03-23T06:16:15;102397.72;;;23.23;25.89
80629;BME280;69983;42.370;-71.210;2024-03-23T06:18:16;102391.95;;;22.77;26.53
80629;BME280;69983;42.370;-71.210;2024-03-23T06:20:16;102388.57;;;23.31;26.30
80629;BME280;69983;42.370;-71.210;2024-03-23T06:22:16;102389.64;;;22.74;26.78
80629;BME280;69983;42.370;-71.210;2024-03-23T06:24:17;102387.64;;;22.94;26.82
80629;BME280;69983;42.370;-71.210;2024-03-23T06:26:17;102375.09;;;22.46;26.88
80629;BME280;69983;42.370;-71.210;2024-03-23T06:28:17;102376.05;;;22.79;26.78
80629;BME280;69983;42.370;-71.210;2024-03-23T06:30:17;102376.65;;;22.48;27.07
80629;BME280;69983;42.370;-71.210;2024-03-23T06:32:18;102375.00;;;22.60;26.96
80629;BME280;69983;42.370;-71.210;2024-03-23T06:34:17;102369.09;;;22.56;27.25
80629;BME280;69983;42.370;-71.210;2024-03-23T06:36:18;102352.12;;;22.69;27.17
80629;BME280;69983;42.370;-71.210;2024-03-23T06:38:19;102334.62;;;22.70;27.12
80629;BME280;69983;42.370;-71.210;2024-03-23T06:40:19;102322.83;;;22.64;27.16
80629;BME280;69983;42.370;-71.210;2024-03-23T06:42:20;102312.81;;;22.51;27.24
80629;BME280;69983;42.370;-71.210;2024-03-23T06:44:20;102306.09;;;22.62;27.09
80629;BME280;69983;42.370;-71.210;2024-03-23T06:46:21;102316.53;;;21.81;27.58
80629;BME280;69983;42.370;-71.210;2024-03-23T06:48:22;102315.82;;;22.36;27.34
80629;BME280;69983;42.370;-71.210;2024-03-23T06:50:22;102311.53;;;22.14;27.46
80629;BME280;69983;42.370;-71.210;2024-03-23T06:52:23;102313.66;;;22.08;27.52
80629;BME280;69983;42.370;-71.210;2024-03-23T06:54:25;102321.56;;;22.52;27.15
80629;BME280;69983;42.370;-71.210;2024-03-23T06:56:25;102324.24;;;22.46;27.23
80629;BME280;69983;42.370;-71.210;2024-03-23T06:58:25;102333.04;;;22.38;27.30
80629;BME280;69983;42.370;-71.210;2024-03-23T07:00:25;102329.36;;;22.15;27.51
80629;BME280;69983;42.370;-71.210;2024-03-23T07:02:29;102330.89;;;22.32;27.34
80629;BME280;69983;42.370;-71.210;2024-03-23T07:04:26;102330.36;;;22.14;27.52
80629;BME280;69983;42.370;-71.210;2024-03-23T07:06:26;102321.01;;;22.43;27.48
80629;BME280;69983;42.370;-71.210;2024-03-23T07:08:26;102310.36;;;22.45;27.48
80629;BME280;69983;42.370;-71.210;2024-03-23T07:10:27;102297.88;;;22.60;27.30
80629;BME280;69983;42.370;-71.210;2024-03-23T07:12:28;102290.02;;;22.36;27.52
80629;BME280;69983;42.370;-71.210;2024-03-23T07:14:28;102276.18;;;22.44;27.49
80629;BME280;69983;42.370;-71.210;2024-03-23T07:16:28;102271.60;;;22.12;27.55
80629;BME280;69983;42.370;-71.210;2024-03-23T07:18:28;102263.33;;;22.15;27.55
80629;BME280;69983;42.370;-71.210;2024-03-23T07:20:28;102255.91;;;22.31;27.61
80629;BME280;69983;42.370;-71.210;2024-03-23T07:22:29;102261.75;;;22.37;27.55
80629;BME280;69983;42.370;-71.210;2024-03-23T07:24:29;102265.44;;;22.19;27.72
80629;BME280;69983;42.370;-71.210;2024-03-23T07:26:29;102253.49;;;22.16;27.69
80629;BME280;69983;42.370;-71.210;2024-03-23T07:28:29;102245.82;;;21.92;27.65
80629;BME280;69983;42.370;-71.210;2024-03-23T07:30:30;102248.36;;;22.16;27.45
80629;BME280;69983;42.370;-71.210;2024-03-23T07:32:30;102252.67;;;21.63;27.95
80629;BME280;69983;42.370;-71.210;2024-03-23T07:34:30;102240.50;;;22.06;27.55
80629;BME280;69983;42.370;-71.210;2024-03-23T07:36:30;102234.67;;;22.16;27.65
80629;BME280;69983;42.370;-71.210;2024-03-23T07:38:30;102228.69;;;22.54;27.55
80629;BME280;69983;42.370;-71.210;2024-03-23T07:40:30;102217.03;;;22.43;27.45
80629;BME280;69983;42.370;-71.210;2024-03-23T07:42:30;102225.73;;;22.52;27.59
80629;BME280;69983;42.370;-71.210;2024-03-23T07:44:30;102228.38;;;22.28;27.62
80629;BME280;69983;42.370;-71.210;2024-03-23T07:46:30;102234.63;;;22.32;27.77
80629;BME280;69983;42.370;-71.210;2024-03-23T07:48:31;102233.03;;;22.58;27.47
80629;BME280;69983;42.370;-71.210;2024-03-23T07:50:31;102237.16;;;22.07;27.73
80629;BME280;69983;42.370;-71.210;2024-03-23T07:52:31;102235.56;;;22.49;27.55
80629;BME280;69983;42.370;-71.210;2024-03-23T07:54:31;102230.97;;;22.37;27.63
80629;BME280;69983;42.370;-71.210;2024-03-23T07:56:31;102215.12;;;22.25;27.58
80629;BME280;69983;42.370;-71.210;2024-03-23T07:58:31;102208.82;;;22.38;27.69
80629;BME280;69983;42.370;-71.210;2024-03-23T08:00:31;102210.67;;;22.01;27.84
80629;BME280;69983;42.370;-71.210;2024-03-23T08:02:31;102205.57;;;22.14;27.65
80629;BME280;69983;42.370;-71.210;2024-03-23T08:04:31;102197.96;;;22.44;27.61
80629;BME280;69983;42.370;-71.210;2024-03-23T08:06:31;102187.97;;;22.02;27.73
80629;BME280;69983;42.370;-71.210;2024-03-23T08:08:31;102172.53;;;21.93;27.50
80629;BME280;69983;42.370;-71.210;2024-03-23T08:10:32;102174.66;;;22.11;27.99
80629;BME280;69983;42.370;-71.210;2024-03-23T08:12:32;102177.47;;;21.82;27.85
80629;BME280;69983;42.370;-71.210;2024-03-23T08:14:32;102171.90;;;21.60;28.09
80629;BME280;69983;42.370;-71.210;2024-03-23T08:16:32;102173.08;;;22.03;27.70
80629;BME280;69983;42.370;-71.210;2024-03-23T08:18:32;102178.76;;;21.82;27.92
80629;BME280;69983;42.370;-71.210;2024-03-23T08:20:32;102174.45;;;21.58;27.93
80629;BME280;69983;42.370;-71.210;2024-03-23T08:22:32;102159.50;;;21.63;27.87
80629;BME280;69983;42.370;-71.210;2024-03-23T08:24:34;102156.77;;;21.99;27.73
80629;BME280;69983;42.370;-71.210;2024-03-23T08:26:32;102157.08;;;22.55;27.62
80629;BME280;69983;42.370;-71.210;2024-03-23T08:28:33;102151.76;;;22.09;27.94
80629;BME280;69983;42.370;-71.210;2024-03-23T08:30:34;102148.04;;;22.02;28.00
80629;BME280;69983;42.370;-71.210;2024-03-23T08:32:33;102139.47;;;21.85;27.92
80629;BME280;69983;42.370;-71.210;2024-03-23T08:34:33;102136.67;;;21.67;28.08
80629;BME280;69983;42.370;-71.210;2024-03-23T08:36:33;102129.89;;;22.01;27.92
80629;BME280;69983;42.370;-71.210;2024-03-23T08:38:33;102126.71;;;21.68;27.99
80629;BME280;69983;42.370;-71.210;2024-03-23T08:40:33;102123.09;;;21.95;27.89
80629;BME280;69983;42.370;-71.210;2024-03-23T08:42:33;102126.23;;;21.91;27.89
80629;BME280;69983;42.370;-71.210;2024-03-23T08:44:33;102117.86;;;22.04;27.72
80629;BME280;69983;42.370;-71.210;2024-03-23T08:46:33;102117.07;;;21.66;27.76
80629;BME280;69983;42.370;-71.210;2024-03-23T08:48:34;102106.41;;;21.56;27.62
80629;BME280;69983;42.370;-71.210;2024-03-23T08:50:33;102096.26;;;21.54;27.73
80629;BME280;69983;42.370;-71.210;2024-03-23T08:52:34;102107.83;;;22.12;27.52
80629;BME280;69983;42.370;-71.210;2024-03-23T08:54:33;102099.99;;;21.83;27.86
80629;BME280;69983;42.370;-71.210;2024-03-23T08:56:33;102100.24;;;21.63;27.70
80629;BME280;69983;42.370;-71.210;2024-03-23T08:58:34;102101.99;;;21.98;27.66
80629;BME280;69983;42.370;-71.210;2024-03-23T09:00:34;102101.77;;;21.80;27.84
80629;BME280;69983;42.370;-71.210;2024-03-23T09:02:34;102096.78;;;22.00;27.69
80629;BME280;69983;42.370;-71.210;2024-03-23T09:04:34;102096.51;;;22.10;27.64
80629;BME280;69983;42.370;-71.210;2024-03-23T09:06:34;102098.63;;;21.53;27.79
80629;BME280;69983;42.370;-71.210;2024-03-23T09:08:34;102101.02;;;21.99;27.63
80629;BME280;69983;42.370;-71.210;2024-03-23T09:10:38;102105.15;;;22.05;27.83
80629;BME280;69983;42.370;-71.210;2024-03-23T09:12:34;102103.30;;;21.53;28.09
80629;BME280;69983;42.370;-71.210;2024-03-23T09:14:34;102100.88;;;21.76;27.92
80629;BME280;69983;42.370;-71.210;2024-03-23T09:16:34;102109.04;;;22.24;27.70
80629;BME280;69983;42.370;-71.210;2024-03-23T09:18:35;102107.85;;;21.95;27.79
80629;BME280;69983;42.370;-71.210;2024-03-23T09:20:34;102110.55;;;21.88;28.10
80629;BME280;69983;42.370;-71.210;2024-03-23T09:22:35;102102.21;;;21.94;28.08
80629;BME280;69983;42.370;-71.210;2024-03-23T09:24:35;102094.02;;;21.56;28.05
80629;BME280;69983;42.370;-71.210;2024-03-23T09:26:35;102085.14;;;21.80;28.04
80629;BME280;69983;42.370;-71.210;2024-03-23T09:28:35;102092.62;;;22.19;27.90
80629;BME280;69983;42.370;-71.210;2024-03-23T09:30:35;102082.19;;;22.27;27.82
80629;BME280;69983;42.370;-71.210;2024-03-23T09:32:35;102081.32;;;21.99;28.08
80629;BME280;69983;42.370;-71.210;2024-03-23T09:34:35;102078.95;;;22.03;28.05
80629;BME280;69983;42.370;-71.210;2024-03-23T09:36:35;102083.69;;;21.80;28.03
80629;BME280;69983;42.370;-71.210;2024-03-23T09:38:35;102078.50;;;22.01;28.05
80629;BME280;69983;42.370;-71.210;2024-03-23T09:40:40;102084.50;;;21.66;28.18
80629;BME280;69983;42.370;-71.210;2024-03-23T09:42:36;102089.85;;;21.95;28.15
80629;BME280;69983;42.370;-71.210;2024-03-23T09:44:36;102100.73;;;21.54;28.31
80629;BME280;69983;42.370;-71.210;2024-03-23T09:46:36;102110.08;;;21.72;28.15
80629;BME280;69983;42.370;-71.210;2024-03-23T09:48:36;102125.01;;;21.92;28.22
80629;BME280;69983;42.370;-71.210;2024-03-23T09:50:37;102136.66;;;22.04;28.11
80629;BME280;69983;42.370;-71.210;2024-03-23T09:52:36;102166.31;;;21.71;28.17
80629;BME280;69983;42.370;-71.210;2024-03-23T09:54:36;102171.89;;;21.75;28.42
80629;BME280;69983;42.370;-71.210;2024-03-23T09:56:36;102169.67;;;21.91;28.30
80629;BME280;69983;42.370;-71.210;2024-03-23T09:58:36;102177.54;;;21.83;28.31
80629;BME280;69983;42.370;-71.210;2024-03-23T10:00:36;102180.11;;;21.58;28.56
80629;BME280;69983;42.370;-71.210;2024-03-23T10:02:37;102166.97;;;21.48;28.59
80629;BME280;69983;42.370;-71.210;2024-03-23T10:04:38;102166.09;;;22.01;28.17
80629;BME280;69983;42.370;-71.210;2024-03-23T10:06:36;102173.52;;;21.62;28.28
80629;BME280;69983;42.370;-71.210;2024-03-23T10:08:36;102163.06;;;19.91;30.39
80629;BME280;69983;42.370;-71.210;2024-03-23T10:10:36;102159.62;;;21.10;29.25
80629;BME280;69983;42.370;-71.210;2024-03-23T10:12:46;102148.97;;;21.85;28.37
80629;BME280;69983;42.370;-71.210;2024-03-23T10:14:37;102154.76;;;21.38;28.25
80629;BME280;69983;42.370;-71.210;2024-03-23T10:16:37;102153.97;;;21.71;28.18
80629;BME280;69983;42.370;-71.210;2024-03-23T10:18:38;102148.26;;;21.99;28.11
80629;BME280;69983;42.370;-71.210;2024-03-23T10:20:37;102135.76;;;21.73;28.09
80629;BME280;69983;42.370;-71.210;2024-03-23T10:22:38;102127.20;;;21.51;27.98
80629;BME280;69983;42.370;-71.210;2024-03-23T10:24:37;102130.35;;;22.00;27.92
80629;BME280;69983;42.370;-71.210;2024-03-23T10:26:37;102120.97;;;22.02;27.84
80629;BME280;69983;42.370;-71.210;2024-03-23T10:28:38;102113.23;;;21.93;27.91
80629;BME280;69983;42.370;-71.210;2024-03-23T10:30:38;102099.60;;;21.65;28.08
80629;BME280;69983;42.370;-71.210;2024-03-23T10:32:38;102094.13;;;21.76;27.96
80629;BME280;69983;42.370;-71.210;2024-03-23T10:34:38;102076.57;;;21.85;27.83
80629;BME280;69983;42.370;-71.210;2024-03-23T10:36:39;102073.96;;;21.49;28.18
80629;BME280;69983;42.370;-71.210;2024-03-23T10:38:39;102084.66;;;21.63;27.87
80629;BME280;69983;42.370;-71.210;2024-03-23T10:40:38;102067.17;;;21.88;27.91
80629;BME280;69983;42.370;-71.210;2024-03-23T10:42:38;102061.14;;;21.66;28.08
80629;BME280;69983;42.370;-71.210;2024-03-23T10:44:38;102063.94;;;20.10;29.67
80629;BME280;69983;42.370;-71.210;2024-03-23T10:46:38;102062.40;;;20.71;29.19
80629;BME280;69983;42.370;-71.210;2024-03-23T10:48:38;102072.01;;;21.84;27.88
80629;BME280;69983;42.370;-71.210;2024-03-23T10:50:38;102077.12;;;21.76;27.93
80629;BME280;69983;42.370;-71.210;2024-03-23T10:52:39;102075.09;;;21.85;27.86
80629;BME280;69983;42.370;-71.210;2024-03-23T10:54:40;102061.56;;;21.10;28.18
80629;BME280;69983;42.370;-71.210;2024-03-23T10:56:40;102055.42;;;21.93;27.59
80629;BME280;69983;42.370;-71.210;2024-03-23T10:58:40;102061.05;;;21.72;27.73
80629;BME280;69983;42.370;-71.210;2024-03-23T11:00:39;102063.65;;;21.25;27.90
80629;BME280;69983;42.370;-71.210;2024-03-23T11:02:39;102068.32;;;21.61;27.83
80629;BME280;69983;42.370;-71.210;2024-03-23T11:04:39;102074.34;;;21.64;27.73